AirNav   Duncan Aviation - Near you to keep you flying
 
 1777 users online  

D20 Yale Airport
Yale, Michigan, USA

GOING TO YALE?


FAA INFORMATION EFFECTIVE 11 AUGUST 2022

Location

FAA Identifier: D20
Lat/Long: 43-06-39.7850N 082-47-12.1850W
43-06.663083N 082-47.203083W
43.1110514,-82.7867181
(estimated)
Elevation: 815 ft. / 248 m (estimated)
Variation: 06W (1985)
From city: 1 mile SE of YALE, MI
Time zone: UTC -4 (UTC -5 during Standard Time)
Zip code: 48097

Airport Operations

Airport use: Open to the public
Activation date: 07/1948
Control tower: no
ARTCC: CLEVELAND CENTER
FSS: LANSING FLIGHT SERVICE STATION
NOTAMs facility: LAN (NOTAM-D service available)
Attendance: IREG
Wind indicator: yes
Segmented circle: yes

Airport Communications

CTAF: 122.9
WX AWOS-3 at PHN (16 nm SE): 118.375 (810-364-7787)

Airport Services

Parking: tiedowns
Airframe service: NONE
Bottled oxygen: NONE
Bulk oxygen: NONE

Runway Information

Runway 9/27

Dimensions: 2300 x 90 ft. / 701 x 27 m
Surface: turf, in good condition
SOFT IN SPRING.
Runway edge markings: RWY & DTHR MKD WITH CONES.
RUNWAY 9  RUNWAY 27
Latitude: 43-06.656500N43-06.669667N
Longitude: 082-47.461333W082-46.944833W
Elevation: 815.0 ft.802.0 ft.
Traffic pattern: leftleft
Runway heading: 094 magnetic, 088 true274 magnetic, 268 true
Displaced threshold: 400 ft.500 ft.
Runway end identifier lights: nono
Touchdown point: yes, no lightsyes, no lights
Obstructions: 15 ft. road, 30 ft. from runway, 125 ft. left and right of centerline, 2:1 slope to clear
APCH RATIO 20:1 TO DTHR.
92 ft. trees, 1246 ft. from runway, 125 ft. left and right of centerline, 13:1 slope to clear
APCH RATIO 20:1 TO DTHR.

Airport Ownership and Management from official FAA records

Ownership: Privately-owned
Owner: JERRY L NORRIS
7381 BROCKWAY RD
YALE, MI 48097-3801
Phone 810-387-2173
Manager: JERRY L NORRIS
7381 BROCKWAY RD
YALE, MI 48097-3801
Phone 810-387-2173

Airport Operational Statistics

Aircraft based on the field: 1
Single engine airplanes: 1
    
Aircraft operations: 100/year *
100% transient general aviation
* for 12-month period ending 31 December 2021

Additional Remarks

FOR CD CTC SELFRIDGE APCH AT 586-239-5706, WHEN APCH CLSD CTC CLEVELAND ARTCC AT 440-774-0224/0490.
+25 FT PLINE, 345 FT FM RWY END 09.

Instrument Procedures

There are no published instrument procedures at D20.

Some nearby airports with instrument procedures:

KPHN - St Clair County International Airport (16 nm SE)
77G - Marlette Township Airport (18 nm NW)
D98 - Romeo State Airport (21 nm SW)
D95 - Dupont/Lapeer Airport (21 nm W)
57D - Ray Community Airport (23 nm S)
 
Loc | Ops | Rwys | IFR | FBO | Links
Com | Nav | Svcs | Stats | Notes
Area around D20 (Yale Airport)
 
Road maps at: MapQuest Bing Google
 
Aerial photo
WARNING: Photo may not be current or correct
Aerial photo of D20 (Yale Airport)
Photo by Katie D.
Photo taken 09-Jul-2009
looking East.

Do you have a better or more recent aerial photo of Yale Airport that you would like to share? If so, please send us your photo.

 
Sectional chart

 
Airport distance calculator
Flying to Yale Airport? Find the distance to fly.

From to D20

Sunrise and sunset
Times for 18-Aug-2022
 Local
(UTC-4)
 Zulu
(UTC)
Morning civil twilight06:1110:11
Sunrise06:4110:41
Sunset20:2900:29
Evening civil twilight20:5900:59

Current date and time
Zulu (UTC)  18-Aug-2022 19:01:12
Local (UTC-4)  18-Aug-2022 15:01:12
 
METAR
KPHN 
17nm SE 
181855Z AUTO 32004KT 10SM CLR 28/08 A2998 RMK AO2
KD95 
21nm W 
181855Z AUTO 30004KT 10SM CLR 28/09 A2998 RMK AO2 T02830092
CYZR 
22nm E 
181800Z AUTO 04006KT 360V070 9SM CLR 26/15 A2999 RMK SLP156 DENSITY ALT 1900FT
KMTC 
30nm S 
181856Z 17004KT 10SM SCT050 SCT075 27/17 A2995 RMK AO2A TCU DSNT S MDT CU OHD SLP144 T02660168
TAF
CYZR 
22nm E 
181340Z 1814/1902 VRB03KT P6SM SKC FM181600 05005KT P6SM FEW070 FM182000 05010KT P6SM BKN070 TEMPO 1820/1901 P6SM -SHRA FM190100 VRB03KT P6SM FEW070 RMK FCST BASED ON AUTO OBS. NXT FCST BY 182000Z
NOTAMs
Click for the latest NOTAMs
NOTAMs are issued by the DoD/FAA and will open in a separate window not controlled by AirNav.

 

 
 

Would you like to see your business listed on this page?

 If your business provides an interesting product or service to pilots, flight crews, aircraft, or users of the Yale Airport, you should consider listing it here.  To start the listing process, click on the button below
 
Add a business
 

Other Pages about Yale Airport

Page from the Michigan Airport Directory (PDF)
 
Update a link
 
Copyright © AirNav, LLC. All rights reserved. Privacy Policy  Contact